Time;durP1;ratioP1;P1;durP2;ratioP2;P2;SDS_P1;SDS_P2;PMS_P1;PMS_P2;Temp;Humidity;BMP_temperature;BMP_pressure;BME280_temperature;BME280_humidity;BME280_pressure;Samples;Min_cycle;Max_cycle;Signal;HPM_P1;HPM_P2
2021/07/11 00:03:32;;;;;;;20.15;14.80;;;;;;;16.34;72.74;100360.84;10304595;28;20231;-75
2021/07/11 00:08:35;;;;;;;19.17;14.88;;;;;;;16.33;72.91;100354.59;10304171;28;20243;-74
2021/07/11 00:13:40;;;;;;;18.17;13.93;;;;;;;16.30;72.88;100349.50;10309663;28;21940;-74
2021/07/11 00:18:43;;;;;;;20.35;15.52;;;;;;;16.22;72.66;100343.16;10312510;28;20246;-74
2021/07/11 00:23:45;;;;;;;20.33;14.38;;;;;;;16.16;72.60;100339.25;10311821;28;20608;-74
2021/07/11 00:28:50;;;;;;;17.63;13.70;;;;;;;16.18;72.96;100355.31;10310266;28;20235;-74
2021/07/11 00:33:53;;;;;;;15.88;13.60;;;;;;;16.16;73.40;100344.66;10310908;28;20743;-74
2021/07/11 00:38:55;;;;;;;18.25;13.95;;;;;;;15.42;75.41;100352.28;10309340;28;20270;-75
2021/07/11 00:44:01;;;;;;;16.88;13.48;;;;;;;15.10;75.80;100352.81;10308664;28;20330;-75
2021/07/11 00:49:06;;;;;;;19.40;13.73;;;;;;;15.15;75.67;100358.63;10310940;28;20626;-74
2021/07/11 00:54:09;;;;;;;19.50;15.43;;;;;;;15.31;76.53;100362.50;10308241;28;20242;-74
2021/07/11 00:59:19;;;;;;;27.30;17.83;;;;;;;15.74;75.84;100352.69;10324389;28;20563;-74
2021/07/11 01:04:30;;;;;;;21.60;17.38;;;;;;;15.86;75.97;100356.84;10308283;28;20785;-74
2021/07/11 01:09:37;;;;;;;23.00;17.13;;;;;;;16.09;75.30;100363.41;10309507;28;20742;-74
2021/07/11 01:14:43;;;;;;;23.73;17.23;;;;;;;16.23;74.71;100358.41;10309554;28;20321;-74
2021/07/11 01:20:01;;;;;;;22.02;15.23;;;;;;;16.30;74.36;100348.66;10310250;28;20258;-74
2021/07/11 01:25:11;;;;;;;23.52;16.40;;;;;;;16.29;74.15;100341.50;10311301;28;20272;-73
2021/07/11 01:30:19;;;;;;;20.23;15.23;;;;;;;16.38;73.93;100340.56;10309897;28;20569;-74
2021/07/11 01:35:23;;;;;;;20.52;15.40;;;;;;;16.27;73.56;100348.97;10322304;28;20241;-74
2021/07/11 01:40:29;;;;;;;19.77;15.55;;;;;;;16.29;73.53;100346.94;10308594;28;20305;-74
2021/07/11 01:45:34;;;;;;;20.42;16.27;;;;;;;16.30;73.05;100351.38;10306486;28;20227;-74
2021/07/11 01:50:38;;;;;;;21.58;15.38;;;;;;;15.82;74.60;100359.00;10307622;28;20910;-75
2021/07/11 01:55:42;;;;;;;24.05;16.08;;;;;;;15.74;75.21;100348.13;10321340;28;20231;-75
2021/07/11 02:00:46;;;;;;;22.35;16.33;;;;;;;15.64;76.03;100355.50;10308801;28;20270;-74
2021/07/11 02:05:50;;;;;;;23.92;16.83;;;;;;;15.47;76.78;100349.97;10323466;28;20243;-74
2021/07/11 02:11:01;;;;;;;23.35;16.88;;;;;;;15.46;77.34;100347.41;10322247;28;20659;-74
2021/07/11 02:16:14;;;;;;;25.20;16.88;;;;;;;15.68;76.68;100340.63;10307935;28;20677;-75
2021/07/11 02:21:22;;;;;;;20.98;15.77;;;;;;;15.47;75.43;100349.97;10321988;28;20235;-74
2021/07/11 02:26:26;;;;;;;23.38;17.33;;;;;;;15.23;76.60;100339.75;10306128;28;20605;-75
2021/07/11 02:31:39;;;;;;;27.88;18.77;;;;;;;15.41;76.59;100352.44;10306653;28;20231;-74
2021/07/11 02:36:46;;;;;;;23.95;17.20;;;;;;;15.40;77.07;100339.94;10304960;28;20262;-74
2021/07/11 02:41:53;;;;;;;24.75;18.33;;;;;;;15.63;76.31;100354.66;10306940;28;20231;-74
2021/07/11 02:47:03;;;;;;;25.40;18.33;;;;;;;15.68;76.33;100354.19;10305211;28;20239;-73
2021/07/11 02:52:09;;;;;;;23.67;17.60;;;;;;;15.96;76.09;100356.72;10321127;28;20242;-74
2021/07/11 02:57:22;;;;;;;26.17;18.40;;;;;;;16.08;75.48;100360.88;10305459;28;20342;-74
2021/07/11 03:02:31;;;;;;;23.52;17.55;;;;;;;15.96;75.08;100362.97;10303796;28;20242;-74
2021/07/11 03:07:34;;;;;;;22.60;17.20;;;;;;;16.00;75.05;100358.13;10304162;28;20243;-74
2021/07/11 03:12:38;;;;;;;23.33;16.40;;;;;;;16.05;74.95;100353.91;10304793;28;20812;-74
2021/07/11 03:17:45;;;;;;;21.95;16.90;;;;;;;16.15;74.95;100359.19;10305779;28;20239;-75
2021/07/11 03:22:52;;;;;;;24.42;17.05;;;;;;;16.12;74.45;100371.22;10305249;28;20268;-75
2021/07/11 03:28:05;;;;;;;23.75;15.02;;;;;;;16.05;74.63;100372.88;10303304;28;20719;-75
2021/07/11 03:33:09;;;;;;;22.33;16.08;;;;;;;16.05;75.00;100378.31;10305311;28;20241;-75
2021/07/11 03:38:17;;;;;;;25.92;16.77;;;;;;;16.15;74.95;100389.00;10303891;28;20243;-75
2021/07/11 03:43:23;;;;;;;24.17;16.88;;;;;;;16.30;74.51;100383.88;10304998;28;20776;-75
2021/07/11 03:48:32;;;;;;;21.17;16.65;;;;;;;15.50;76.99;100391.28;10309245;28;21471;-75
2021/07/11 03:53:37;;;;;;;23.52;15.98;;;;;;;15.79;76.19;100382.84;10313117;28;20234;-75
2021/07/11 03:58:42;;;;;;;21.77;16.02;;;;;;;16.03;75.87;100393.00;10311743;28;20247;-74
2021/07/11 04:03:47;;;;;;;29.52;16.20;;;;;;;15.93;75.18;100395.81;10310643;28;20250;-75
2021/07/11 04:08:51;;;;;;;23.85;16.08;;;;;;;15.93;75.68;100401.22;10312919;28;20250;-74
2021/07/11 04:13:54;;;;;;;23.70;18.45;;;;;;;16.24;75.35;100403.47;10313610;28;20777;-75
2021/07/11 04:19:01;;;;;;;29.70;19.27;;;;;;;16.43;74.60;100411.41;10313311;28;20238;-75
2021/07/11 04:24:06;;;;;;;24.98;18.52;;;;;;;16.57;74.50;100416.22;10312474;28;20285;-75
2021/07/11 04:29:09;;;;;;;27.20;18.48;;;;;;;16.74;74.20;100413.56;10314181;28;20235;-75
2021/07/11 04:34:25;;;;;;;23.77;17.42;;;;;;;16.87;74.01;100426.69;10311597;28;20227;-75
2021/07/11 04:39:28;;;;;;;24.42;16.95;;;;;;;16.99;73.57;100420.75;10314354;28;20297;-75
2021/07/11 04:44:32;;;;;;;23.67;17.08;;;;;;;17.14;72.97;100428.28;10311372;28;20250;-75
2021/07/11 04:49:36;;;;;;;22.77;18.10;;;;;;;17.10;72.50;100432.31;10312734;28;20242;-75
2021/07/11 04:54:39;;;;;;;22.77;17.55;;;;;;;17.16;72.44;100429.81;10311149;28;20235;-75
2021/07/11 04:59:42;;;;;;;24.65;18.13;;;;;;;17.27;71.98;100431.38;10313691;28;20231;-75
2021/07/11 05:04:46;;;;;;;24.67;17.80;;;;;;;17.46;71.64;100422.91;10312458;28;21305;-75
2021/07/11 05:09:49;;;;;;;24.25;18.10;;;;;;;17.45;71.51;100415.78;10310327;28;20239;-75
2021/07/11 05:14:52;;;;;;;26.02;18.30;;;;;;;17.44;71.83;100413.22;10312074;28;20238;-75
2021/07/11 05:19:56;;;;;;;24.73;18.02;;;;;;;17.82;71.41;100411.69;10309742;28;20249;-74
2021/07/11 05:24:59;;;;;;;27.98;17.80;;;;;;;18.20;69.64;100412.03;10309402;28;20269;-75
2021/07/11 05:30:02;;;;;;;23.75;18.48;;;;;;;18.33;69.77;100415.03;10313639;28;20250;-74
2021/07/11 05:35:07;;;;;;;24.00;17.90;;;;;;;18.61;68.55;100416.50;10312411;28;20250;-74
2021/07/11 05:40:11;;;;;;;27.98;19.02;;;;;;;18.88;68.22;100421.50;10310761;28;20246;-73
2021/07/11 05:45:14;;;;;;;22.70;17.35;;;;;;;19.07;67.95;100412.03;10306390;28;20238;-74
2021/07/11 05:50:19;;;;;;;21.30;15.98;;;;;;;19.25;66.32;100414.47;10311648;28;20238;-74
2021/07/11 05:55:22;;;;;;;22.63;15.93;;;;;;;19.25;65.44;100428.06;10307965;28;20732;-74
2021/07/11 06:00:25;;;;;;;20.45;15.55;;;;;;;19.59;65.70;100416.81;10312017;28;20242;-74
2021/07/11 06:05:29;;;;;;;19.73;15.50;;;;;;;19.21;65.55;100418.59;10308345;28;20250;-73
2021/07/11 06:10:32;;;;;;;22.92;15.45;;;;;;;19.38;65.00;100422.88;10310679;28;20245;-73
2021/07/11 06:15:35;;;;;;;21.00;15.10;;;;;;;19.07;67.67;100424.81;10308402;28;20237;-74
2021/07/11 06:20:39;;;;;;;19.92;16.00;;;;;;;19.34;67.60;100429.75;10316114;28;20263;-73
2021/07/11 06:25:43;;;;;;;21.80;16.58;;;;;;;19.46;68.08;100436.44;10309373;28;20243;-73
2021/07/11 06:30:46;;;;;;;21.55;16.42;;;;;;;19.20;67.08;100436.81;10309979;28;20235;-74
2021/07/11 06:35:50;;;;;;;20.73;16.48;;;;;;;19.37;67.05;100437.53;10308333;28;20676;-74
2021/07/11 06:40:53;;;;;;;22.42;15.45;;;;;;;19.40;67.02;100434.44;10308330;28;20247;-73
2021/07/11 06:45:56;;;;;;;18.20;14.88;;;;;;;18.87;66.64;100438.84;10323860;28;20601;-74
2021/07/11 06:51:01;;;;;;;21.95;15.95;;;;;;;19.03;66.02;100446.06;10306888;28;20300;-74
2021/07/11 06:56:04;;;;;;;19.25;15.57;;;;;;;19.33;66.09;100446.25;10340287;28;20247;-73
2021/07/11 07:01:07;;;;;;;23.25;17.55;;;;;;;19.54;65.01;100453.78;10324954;28;20242;-73
2021/07/11 07:06:12;;;;;;;20.10;15.70;;;;;;;19.71;64.15;100460.81;10341285;28;20226;-72
2021/07/11 07:11:14;;;;;;;22.15;16.20;;;;;;;20.10;62.89;100465.25;10348829;28;20242;-72
2021/07/11 07:16:17;;;;;;;20.48;14.88;;;;;;;20.54;61.84;100469.94;10347232;28;20353;-72
2021/07/11 07:21:22;;;;;;;23.85;16.75;;;;;;;20.98;59.89;100472.66;10349954;28;20238;-71
2021/07/11 07:26:25;;;;;;;20.92;16.13;;;;;;;21.32;59.55;100462.16;10348925;28;20238;-71
2021/07/11 07:31:28;;;;;;;19.75;15.52;;;;;;;21.74;58.63;100461.31;10347497;28;20230;-72
2021/07/11 07:36:34;;;;;;;19.10;14.40;;;;;;;21.70;58.13;100459.19;10347291;28;20234;-71
2021/07/11 07:41:37;;;;;;;18.73;15.73;;;;;;;21.33;58.62;100442.81;10348343;28;20233;-72
2021/07/11 07:46:40;;;;;;;17.67;14.32;;;;;;;22.17;57.57;100447.63;10346415;28;20242;-71
2021/07/11 07:51:45;;;;;;;17.15;13.57;;;;;;;23.02;56.23;100450.25;10347761;28;20249;-71
2021/07/11 07:56:48;;;;;;;16.48;13.82;;;;;;;22.99;54.51;100452.34;10341975;28;20239;-72
2021/07/11 08:01:51;;;;;;;18.63;15.10;;;;;;;22.46;55.29;100454.81;10306864;28;21045;-72
2021/07/11 08:06:55;;;;;;;19.02;14.80;;;;;;;22.62;55.97;100445.41;10304561;28;20246;-71
2021/07/11 08:11:58;;;;;;;15.82;14.23;;;;;;;23.15;55.35;100451.16;10305511;28;20242;-71
2021/07/11 08:17:01;;;;;;;18.75;15.13;;;;;;;23.11;56.07;100457.25;10304515;28;20239;-72
2021/07/11 08:22:06;;;;;;;19.75;14.25;;;;;;;23.81;54.94;100457.88;10306394;28;20239;-71
2021/07/11 08:27:09;;;;;;;18.85;14.60;;;;;;;23.62;53.63;100449.38;10309573;28;20322;-74
2021/07/11 08:32:12;;;;;;;16.48;13.80;;;;;;;24.31;51.92;100445.38;10307544;28;20254;-75
2021/07/11 08:37:16;;;;;;;17.60;14.02;;;;;;;23.03;54.80;100451.94;10320180;28;20829;-74
2021/07/11 08:42:20;;;;;;;18.42;15.43;;;;;;;22.82;54.49;100453.75;10333660;28;20254;-73
2021/07/11 08:47:23;;;;;;;19.73;14.45;;;;;;;23.17;54.74;100453.69;10331900;28;20261;-74
2021/07/11 08:52:27;;;;;;;15.73;14.18;;;;;;;24.44;51.63;100444.56;10327181;28;20304;-74
2021/07/11 08:57:30;;;;;;;15.65;13.18;;;;;;;24.19;51.55;100448.97;10324040;28;20231;-74
2021/07/11 09:02:33;;;;;;;14.05;12.02;;;;;;;24.40;50.58;100451.53;10310702;28;20734;-74
2021/07/11 09:07:40;;;;;;;14.80;11.52;;;;;;;24.88;49.84;100456.69;10323308;28;20238;-75
2021/07/11 09:12:54;;;;;;;14.27;12.30;;;;;;;24.74;49.70;100450.41;10322600;28;20289;-74
2021/07/11 09:17:57;;;;;;;12.02;10.80;;;;;;;25.27;48.09;100446.59;10321275;28;20254;-74
2021/07/11 09:23:04;;;;;;;15.23;12.40;;;;;;;24.45;49.34;100451.72;10310379;28;20754;-74
2021/07/11 09:28:11;;;;;;;14.10;11.65;;;;;;;24.30;49.75;100442.88;10312181;28;20235;-75
2021/07/11 09:33:18;;;;;;;15.45;12.38;;;;;;;25.41;49.47;100439.09;10309988;28;20252;-74
2021/07/11 09:38:29;;;;;;;12.00;10.80;;;;;;;26.36;46.57;100440.94;10314987;28;20226;-74
2021/07/11 09:43:39;;;;;;;12.77;11.27;;;;;;;26.64;45.66;100433.00;10323997;28;20222;-75
2021/07/11 09:48:42;;;;;;;12.75;11.18;;;;;;;26.38;46.65;100436.88;10323833;28;20251;-74
2021/07/11 09:53:48;;;;;;;12.02;10.82;;;;;;;26.93;44.38;100438.81;10308763;28;20904;-73
2021/07/11 09:58:55;;;;;;;12.68;11.38;;;;;;;27.01;44.62;100441.25;10308118;28;20253;-75
2021/07/11 10:03:59;;;;;;;12.30;11.02;;;;;;;27.95;42.72;100438.00;10307893;28;20242;-75
2021/07/11 10:09:05;;;;;;;13.70;11.35;;;;;;;27.53;43.41;100436.09;10311813;28;20235;-74
2021/07/11 10:14:08;;;;;;;11.93;10.73;;;;;;;27.64;43.52;100437.19;10324526;28;20239;-76
2021/07/11 10:19:14;;;;;;;11.55;10.18;;;;;;;27.73;42.96;100433.03;10317227;28;20265;-74
2021/07/11 10:24:21;;;;;;;11.35;9.95;;;;;;;27.65;43.07;100432.53;10305492;28;20238;-74
2021/07/11 10:29:24;;;;;;;10.75;9.65;;;;;;;27.54;42.83;100435.03;10305944;28;20231;-74
2021/07/11 10:34:30;;;;;;;11.40;10.25;;;;;;;27.48;43.72;100432.34;10306448;28;20234;-74
2021/07/11 10:39:35;;;;;;;12.88;11.32;;;;;;;28.11;41.51;100425.41;10307688;28;20223;-74
2021/07/11 10:44:39;;;;;;;12.60;11.40;;;;;;;27.95;41.69;100421.44;10308410;28;20258;-75
2021/07/11 10:49:53;;;;;;;11.15;10.05;;;;;;;28.25;41.13;100416.66;10308254;28;20234;-74
2021/07/11 10:55:00;;;;;;;11.30;10.15;;;;;;;28.27;41.53;100422.75;10306032;28;20246;-75
2021/07/11 11:00:15;;;;;;;12.95;11.20;;;;;;;28.30;41.31;100418.69;10314877;28;20246;-75
2021/07/11 11:05:23;;;;;;;11.90;10.65;;;;;;;27.31;43.64;100429.41;10308276;28;20249;-75
2021/07/11 11:10:33;;;;;;;12.77;11.45;;;;;;;25.72;46.26;100426.44;10322234;28;20237;-75
2021/07/11 11:15:40;;;;;;;12.98;11.38;;;;;;;25.92;47.41;100420.75;10327403;28;20765;-75
2021/07/11 11:20:44;;;;;;;11.80;10.60;;;;;;;25.70;48.59;100417.56;10328431;28;20719;-74
2021/07/11 11:25:48;;;;;;;13.38;11.05;;;;;;;25.43;48.55;100425.16;10308549;28;20250;-74
2021/07/11 11:30:51;;;;;;;12.98;11.30;;;;;;;24.76;51.05;100429.03;10330250;28;20286;-74
2021/07/11 11:35:55;;;;;;;13.98;12.57;;;;;;;24.59;51.63;100427.00;10345751;28;20242;-74
2021/07/11 11:40:59;;;;;;;14.88;13.27;;;;;;;24.44;50.10;100422.59;10346840;28;20253;-74
2021/07/11 11:46:02;;;;;;;14.18;12.65;;;;;;;25.25;50.76;100426.72;10338648;28;20238;-75
2021/07/11 11:51:06;;;;;;;21.40;16.63;;;;;;;23.45;55.87;100428.91;10347169;28;20704;-75
2021/07/11 11:56:12;;;;;;;26.92;21.15;;;;;;;22.69;59.46;100435.34;10348665;28;20249;-75
2021/07/11 12:01:17;;;;;;;37.67;24.27;;;;;;;22.92;59.32;100445.97;10346694;28;20233;-75
2021/07/11 12:06:24;;;;;;;36.35;24.00;;;;;;;23.23;57.91;100441.06;10344866;28;20264;-75
2021/07/11 12:11:28;;;;;;;39.50;25.15;;;;;;;22.20;60.14;100447.22;10353089;28;20241;-75
2021/07/11 12:16:31;;;;;;;39.33;24.80;;;;;;;22.20;60.18;100452.69;10352771;28;20238;-75
2021/07/11 12:21:40;;;;;;;40.28;26.42;;;;;;;22.30;60.48;100457.84;10352129;28;20247;-75
2021/07/11 12:26:46;;;;;;;36.00;24.58;;;;;;;23.23;58.89;100446.53;10351755;28;20238;-75
2021/07/11 12:31:56;;;;;;;36.10;23.70;;;;;;;23.37;57.09;100442.81;10351722;28;20234;-75
2021/07/11 12:37:05;;;;;;;34.75;24.70;;;;;;;22.80;59.12;100450.34;10350365;28;20738;-75
2021/07/11 12:42:18;;;;;;;34.72;23.15;;;;;;;24.39;55.64;100427.00;10351237;28;20774;-75
2021/07/11 12:47:21;;;;;;;34.30;23.10;;;;;;;24.67;54.88;100421.25;10351551;28;20249;-75
2021/07/11 12:52:27;;;;;;;32.83;22.45;;;;;;;24.85;52.98;100415.03;10353950;28;20265;-75
2021/07/11 12:57:32;;;;;;;32.92;23.15;;;;;;;24.48;54.20;100410.13;10351328;28;20915;-75
2021/07/11 13:02:35;;;;;;;30.98;20.98;;;;;;;25.50;52.24;100409.44;10352283;28;20365;-75
2021/07/11 13:07:37;;;;;;;29.88;20.35;;;;;;;27.64;47.25;100398.56;10350773;28;20242;-75
2021/07/11 13:12:42;;;;;;;27.02;20.58;;;;;;;28.12;46.10;100400.34;10365311;28;20724;-75
2021/07/11 13:17:45;;;;;;;32.53;19.88;;;;;;;25.56;50.69;100417.66;10352378;28;20245;-75
2021/07/11 13:22:48;;;;;;;27.73;20.05;;;;;;;24.92;53.24;100415.88;10351559;28;20246;-75
2021/07/11 13:27:52;;;;;;;28.20;21.17;;;;;;;24.37;55.56;100429.97;10351734;28;20250;-75
2021/07/11 13:32:57;;;;;;;32.00;21.85;;;;;;;22.77;68.27;100431.59;10350725;28;20797;-75
2021/07/11 13:38:00;;;;;;;33.30;23.25;;;;;;;21.70;73.65;100427.22;10350759;28;20235;-74
2021/07/11 13:43:04;;;;;;;40.47;24.05;;;;;;;20.39;93.53;100417.28;10351531;28;20232;-74
2021/07/11 13:48:07;;;;;;;39.35;26.50;;;;;;;20.67;94.65;100411.97;10349289;28;20615;-75
2021/07/11 13:53:10;;;;;;;42.45;27.20;;;;;;;21.53;95.22;100415.72;10349501;28;20735;-76
2021/07/11 13:58:14;;;;;;;41.92;27.35;;;;;;;21.72;91.18;100425.16;10350652;28;20245;-75
2021/07/11 14:03:17;;;;;;;40.33;26.83;;;;;;;21.45;86.13;100430.38;10351724;28;20234;-75
2021/07/11 14:08:20;;;;;;;41.75;27.90;;;;;;;21.26;86.24;100443.81;10349322;28;20234;-75
2021/07/11 14:13:25;;;;;;;42.30;26.67;;;;;;;20.93;85.57;100445.09;10351550;28;20234;-75
2021/07/11 14:18:28;;;;;;;39.13;27.30;;;;;;;20.54;86.52;100427.16;10348896;28;20234;-74
2021/07/11 14:23:31;;;;;;;42.92;28.00;;;;;;;20.42;87.23;100434.09;10347587;28;20230;-75
2021/07/11 14:28:35;;;;;;;42.60;27.55;;;;;;;20.31;86.93;100420.94;10349632;28;20234;-75
2021/07/11 14:33:40;;;;;;;42.53;27.92;;;;;;;20.28;87.07;100424.00;10348166;28;20746;-74
2021/07/11 14:38:43;;;;;;;41.63;28.13;;;;;;;20.44;87.25;100401.19;10349340;28;20239;-74
2021/07/11 14:43:48;;;;;;;49.47;30.45;;;;;;;20.39;88.57;100407.19;10349944;28;20234;-75
2021/07/11 14:48:50;;;;;;;52.88;31.85;;;;;;;20.38;88.41;100399.19;10348827;28;20242;-75
2021/07/11 14:53:53;;;;;;;46.97;31.25;;;;;;;20.22;88.23;100398.31;10347978;28;20242;-75
2021/07/11 14:58:59;;;;;;;46.20;32.25;;;;;;;20.19;88.34;100390.53;10348383;28;21325;-75
2021/07/11 15:04:02;;;;;;;50.47;31.65;;;;;;;20.29;88.78;100391.06;10347275;28;20812;-74
2021/07/11 15:09:05;;;;;;;55.38;34.10;;;;;;;20.36;88.52;100387.63;10348215;28;20238;-75
2021/07/11 15:14:11;;;;;;;48.58;32.20;;;;;;;20.51;88.77;100396.66;10348348;28;20239;-74
2021/07/11 15:19:14;;;;;;;46.15;30.73;;;;;;;20.70;88.77;100401.50;10348135;28;20617;-74
2021/07/11 15:24:17;;;;;;;44.47;31.17;;;;;;;20.64;88.64;100391.38;10347880;28;21514;-74
2021/07/11 15:29:21;;;;;;;57.70;30.00;;;;;;;21.14;89.81;100394.28;10347944;28;20234;-74
2021/07/11 15:34:24;;;;;;;37.88;26.15;;;;;;;21.57;88.67;100373.28;10346262;28;20242;-74
2021/07/11 15:39:27;;;;;;;35.47;25.63;;;;;;;22.02;88.52;100387.56;10347901;28;20321;-72
2021/07/11 15:44:31;;;;;;;36.67;25.90;;;;;;;22.32;87.94;100371.75;10333632;28;20242;-72
2021/07/11 15:49:35;;;;;;;32.10;23.27;;;;;;;22.76;87.90;100370.53;10316351;28;20891;-73
2021/07/11 15:54:38;;;;;;;29.48;22.58;;;;;;;23.41;85.17;100354.44;10313107;28;20238;-73
2021/07/11 15:59:43;;;;;;;28.58;21.33;;;;;;;23.15;78.86;100366.25;10328037;28;20235;-72
2021/07/11 16:04:45;;;;;;;26.90;20.55;;;;;;;22.97;81.39;100357.72;10312349;28;20231;-73
2021/07/11 16:09:49;;;;;;;25.48;19.55;;;;;;;23.17;77.81;100364.13;10311304;28;20235;-73
2021/07/11 16:14:54;;;;;;;25.95;20.55;;;;;;;24.34;73.38;100364.50;10314629;28;20273;-71
2021/07/11 16:19:57;;;;;;;22.73;18.38;;;;;;;25.59;78.09;100364.94;10314988;28;20246;-72
2021/07/11 16:25:00;;;;;;;23.23;18.33;;;;;;;26.09;75.81;100364.09;10316328;28;20243;-73
2021/07/11 16:30:06;;;;;;;22.88;18.10;;;;;;;25.58;71.71;100377.00;10313757;28;20227;-73
2021/07/11 16:35:10;;;;;;;25.75;20.23;;;;;;;22.94;68.54;100377.31;10315139;28;20247;-74
2021/07/11 16:40:14;;;;;;;33.50;23.85;;;;;;;22.41;72.64;100386.13;10314628;28;20235;-73
2021/07/11 16:45:19;;;;;;;31.60;21.27;;;;;;;21.51;70.88;100387.75;10312516;28;20231;-73
2021/07/11 16:50:22;;;;;;;31.42;22.05;;;;;;;20.56;72.65;100384.13;10311767;28;20243;-73
2021/07/11 16:55:25;;;;;;;35.63;22.70;;;;;;;20.70;73.71;100387.88;10309251;28;20242;-73
2021/07/11 17:00:29;;;;;;;36.40;22.40;;;;;;;21.18;71.06;100373.75;10325078;28;20774;-74
2021/07/11 17:05:32;;;;;;;36.40;23.25;;;;;;;20.71;72.59;100378.66;10311778;28;20731;-74
2021/07/11 17:10:35;;;;;;;36.17;24.40;;;;;;;21.38;73.58;100383.00;10308536;28;20250;-73
2021/07/11 17:15:39;;;;;;;35.00;24.08;;;;;;;22.55;72.78;100387.91;10309921;28;20231;-73
2021/07/11 17:20:42;;;;;;;35.25;23.45;;;;;;;22.58;69.63;100389.41;10308981;28;20712;-74
2021/07/11 17:25:45;;;;;;;32.50;22.30;;;;;;;22.18;68.79;100393.75;10311070;28;20238;-74
2021/07/11 17:30:51;;;;;;;27.98;20.40;;;;;;;21.25;70.61;100399.25;10305263;28;20239;-74
2021/07/11 17:35:54;;;;;;;32.25;21.73;;;;;;;20.60;71.41;100403.72;10308330;28;20249;-74
2021/07/11 17:40:57;;;;;;;29.40;21.52;;;;;;;20.36;73.57;100414.91;10308181;28;20623;-74
2021/07/11 17:46:01;;;;;;;31.88;21.38;;;;;;;20.51;75.49;100408.41;10309561;28;20619;-74
2021/07/11 17:51:04;;;;;;;29.63;20.65;;;;;;;20.55;75.58;100412.47;10306411;28;20234;-74
2021/07/11 17:56:07;;;;;;;26.17;19.80;;;;;;;20.50;74.71;100406.72;10306280;28;20246;-73
2021/07/11 18:01:11;;;;;;;21.33;17.10;;;;;;;20.33;72.79;100402.50;10308218;28;20235;-76
2021/07/11 18:06:14;;;;;;;24.00;17.83;;;;;;;20.02;73.78;100395.31;10306762;28;20738;-74
2021/07/11 18:11:18;;;;;;;30.23;18.75;;;;;;;19.79;76.10;100395.34;10306992;28;20720;-75
2021/07/11 18:16:22;;;;;;;27.98;19.80;;;;;;;19.87;77.17;100383.53;10331958;28;20230;-74
2021/07/11 18:21:26;;;;;;;30.33;20.63;;;;;;;19.91;76.00;100384.81;10311769;28;20277;-75
2021/07/11 18:26:29;;;;;;;27.90;20.73;;;;;;;20.11;77.63;100396.06;10308778;28;20239;-75
2021/07/11 18:31:33;;;;;;;29.25;19.90;;;;;;;19.75;77.26;100391.31;10309191;28;20238;-75
2021/07/11 18:36:37;;;;;;;29.85;21.15;;;;;;;19.66;78.62;100389.66;10309194;28;20242;-74
2021/07/11 18:41:39;;;;;;;33.67;23.10;;;;;;;19.48;78.58;100379.06;10307515;28;20239;-75
2021/07/11 18:46:44;;;;;;;35.22;23.73;;;;;;;19.48;78.78;100383.69;10308258;28;20301;-75
2021/07/11 18:51:47;;;;;;;39.47;24.27;;;;;;;19.49;78.19;100379.91;10309701;28;20602;-76
2021/07/11 18:56:50;;;;;;;33.83;21.30;;;;;;;19.59;77.96;100378.66;10307231;28;20246;-76
2021/07/11 19:01:54;;;;;;;32.47;21.60;;;;;;;19.58;77.83;100373.38;10317107;28;20242;-76
2021/07/11 19:06:57;;;;;;;30.95;20.80;;;;;;;19.42;78.00;100383.38;10305419;28;20243;-76
2021/07/11 19:12:00;;;;;;;40.65;26.00;;;;;;;19.38;78.14;100379.31;10305655;28;20227;-77
2021/07/11 19:17:04;;;;;;;39.08;23.70;;;;;;;19.35;77.81;100378.84;10342525;28;20245;-77
2021/07/11 19:22:07;;;;;;;36.88;23.73;;;;;;;19.30;77.86;100367.63;10302297;28;20277;-76
2021/07/11 19:27:10;;;;;;;35.80;23.40;;;;;;;19.22;77.97;100371.25;10321737;28;20334;-76
2021/07/11 19:32:15;;;;;;;39.90;23.92;;;;;;;19.18;78.00;100369.94;10305014;28;20227;-77
2021/07/11 19:37:23;;;;;;;38.10;25.40;;;;;;;19.01;77.96;100372.78;10305022;28;20235;-76
2021/07/11 19:42:26;;;;;;;38.70;26.48;;;;;;;18.90;78.18;100377.78;10301064;28;20231;-76
2021/07/11 19:47:30;;;;;;;42.28;26.95;;;;;;;18.80;78.42;100384.28;10305155;28;20242;-76
2021/07/11 19:52:33;;;;;;;50.78;29.27;;;;;;;18.81;78.83;100393.28;10305640;28;21191;-76
2021/07/11 19:57:37;;;;;;;48.80;30.83;;;;;;;18.73;78.74;100387.84;10304630;28;20238;-76
2021/07/11 20:02:41;;;;;;;56.65;34.55;;;;;;;18.65;78.87;100390.63;10304404;28;20231;-76
2021/07/11 20:07:45;;;;;;;55.47;32.55;;;;;;;18.58;78.84;100387.75;10308626;28;20790;-75
2021/07/11 20:12:48;;;;;;;43.65;27.80;;;;;;;18.40;78.92;100392.59;10304275;28;20238;-75
2021/07/11 20:17:52;;;;;;;50.88;30.17;;;;;;;18.30;79.28;100382.78;10303845;28;20239;-75
2021/07/11 20:22:55;;;;;;;47.47;29.52;;;;;;;18.26;79.65;100380.56;10303618;28;20231;-74
2021/07/11 20:27:58;;;;;;;50.33;30.52;;;;;;;18.27;79.72;100385.84;10305010;28;20238;-74
2021/07/11 20:33:02;;;;;;;57.50;32.78;;;;;;;18.28;79.37;100384.81;10310914;28;20712;-75
2021/07/11 20:38:05;;;;;;;66.30;35.85;;;;;;;18.08;79.68;100386.25;10310577;28;20289;-75
2021/07/11 20:43:08;;;;;;;67.95;37.75;;;;;;;18.06;80.29;100380.13;10312413;28;20250;-74
2021/07/11 20:48:12;;;;;;;74.40;41.03;;;;;;;18.09;80.55;100377.91;10315653;28;20239;-76
2021/07/11 20:53:15;;;;;;;78.72;41.72;;;;;;;18.20;80.16;100393.00;10312865;28;20234;-74
2021/07/11 20:58:24;;;;;;;76.43;39.97;;;;;;;18.28;79.72;100390.25;10309820;28;20234;-74
2021/07/11 21:03:29;;;;;;;68.75;39.78;;;;;;;18.32;79.37;100380.72;10343589;28;20227;-75
2021/07/11 21:08:32;;;;;;;70.15;39.47;;;;;;;18.29;79.31;100380.22;10350453;28;20245;-75
2021/07/11 21:13:35;;;;;;;63.22;36.10;;;;;;;17.83;80.11;100372.66;10352815;28;20242;-74
2021/07/11 21:18:39;;;;;;;77.10;41.13;;;;;;;17.63;81.06;100374.03;10309290;28;20719;-75
2021/07/11 21:23:42;;;;;;;72.93;42.10;;;;;;;17.67;81.24;100376.25;10309354;28;20238;-75
2021/07/11 21:28:45;;;;;;;72.50;40.70;;;;;;;17.74;80.83;100373.66;10310556;28;20235;-75
2021/07/11 21:33:49;;;;;;;77.35;41.88;;;;;;;17.74;80.64;100372.84;10310129;28;20644;-75
2021/07/11 21:38:53;;;;;;;76.95;41.47;;;;;;;17.72;80.61;100372.16;10309284;28;20242;-75
2021/07/11 21:43:56;;;;;;;72.35;40.28;;;;;;;17.64;80.75;100375.75;10311110;28;20243;-75
2021/07/11 21:49:00;;;;;;;78.70;42.28;;;;;;;17.66;80.83;100382.69;10310855;28;20250;-74
2021/07/11 21:54:03;;;;;;;84.78;43.72;;;;;;;17.55;81.39;100379.47;10311619;28;20609;-74
2021/07/11 21:59:06;;;;;;;92.68;46.22;;;;;;;17.35;82.18;100379.81;10308876;28;20235;-74
2021/07/11 22:04:10;;;;;;;87.82;46.45;;;;;;;17.34;82.36;100385.41;10310388;28;20231;-75
2021/07/11 22:09:13;;;;;;;92.88;46.53;;;;;;;17.32;82.63;100387.44;10310196;28;20263;-74
2021/07/11 22:14:16;;;;;;;96.65;45.67;;;;;;;17.43;82.55;100406.97;10313987;28;21385;-75
2021/07/11 22:19:20;;;;;;;96.40;47.33;;;;;;;17.51;82.15;100394.41;10311168;28;20241;-74
2021/07/11 22:24:23;;;;;;;93.32;44.70;;;;;;;17.47;81.81;100389.31;10310577;28;20239;-74
2021/07/11 22:29:26;;;;;;;90.45;41.58;;;;;;;17.40;81.26;100396.44;10312418;28;20724;-75
2021/07/11 22:34:30;;;;;;;80.32;40.78;;;;;;;17.30;80.72;100392.19;10310910;28;20238;-75
2021/07/11 22:39:33;;;;;;;80.63;40.10;;;;;;;17.18;80.78;100394.38;10311369;28;20231;-75
2021/07/11 22:44:36;;;;;;;79.57;39.67;;;;;;;17.18;80.92;100380.81;10307894;28;20244;-74
2021/07/11 22:49:40;;;;;;;71.68;36.72;;;;;;;17.19;80.95;100379.78;10310160;28;20233;-74